Time;durP1;ratioP1;P1;durP2;ratioP2;P2;SDS_P1;SDS_P2;PMS_P1;PMS_P2;Temp;Humidity;BMP_temperature;BMP_pressure;BME280_temperature;BME280_humidity;BME280_pressure;Samples;Min_cycle;Max_cycle;Signal;HPM_P1;HPM_P2
2023/02/01 00:00:16;;;;;;;31.15;4.57;;;;;;;6.29;100.00;101436.84;5068728;28;20083;-82
2023/02/01 00:02:42;;;;;;;22.50;3.80;;;;;;;6.28;100.00;101429.06;5041966;28;20052;-82
2023/02/01 00:05:10;;;;;;;28.83;3.78;;;;;;;6.29;100.00;101433.38;5070628;28;20219;-82
2023/02/01 00:07:37;;;;;;;23.80;3.78;;;;;;;6.29;100.00;101426.34;5068895;28;20132;-82
2023/02/01 00:10:05;;;;;;;22.00;4.15;;;;;;;6.32;100.00;101435.81;5066547;28;20032;-82
2023/02/01 00:12:31;;;;;;;35.65;5.18;;;;;;;6.30;100.00;101440.31;5032867;28;20064;-82
2023/02/01 00:14:56;;;;;;;25.73;4.40;;;;;;;6.27;100.00;101440.50;5066682;28;20420;-82
2023/02/01 00:17:23;;;;;;;25.30;5.05;;;;;;;6.24;100.00;101438.91;5046104;28;20078;-80
2023/02/01 00:19:48;;;;;;;21.98;4.07;;;;;;;6.22;100.00;101438.16;5031601;28;20044;-80
2023/02/01 00:22:14;;;;;;;22.85;3.63;;;;;;;6.22;100.00;101438.16;5061788;28;20033;-82
2023/02/01 00:24:40;;;;;;;19.70;4.03;;;;;;;6.20;100.00;101437.38;5063440;28;20041;-82
2023/02/01 00:27:06;;;;;;;21.58;3.22;;;;;;;6.17;100.00;101440.19;5038648;28;20036;-82
2023/02/01 00:29:31;;;;;;;30.92;4.65;;;;;;;6.12;100.00;101434.38;5031914;28;20035;-82
2023/02/01 00:31:57;;;;;;;20.48;3.17;;;;;;;6.11;100.00;101432.69;5050492;28;20644;-82
2023/02/01 00:34:23;;;;;;;25.80;5.18;;;;;;;6.06;100.00;101438.22;5065119;28;20037;-82
2023/02/01 00:36:50;;;;;;;22.42;3.63;;;;;;;6.01;100.00;101430.56;5069446;28;20028;-82
2023/02/01 00:39:16;;;;;;;22.48;3.97;;;;;;;5.99;100.00;101421.94;5047184;28;20033;-82
2023/02/01 00:41:42;;;;;;;25.63;4.88;;;;;;;5.95;100.00;101423.91;5036640;28;20040;-82
2023/02/01 00:44:08;;;;;;;22.20;3.88;;;;;;;5.90;100.00;101423.34;5050729;28;20029;-82
2023/02/01 00:46:34;;;;;;;28.38;4.07;;;;;;;5.82;100.00;101431.66;5035858;28;20453;-81
2023/02/01 00:49:00;;;;;;;23.13;3.80;;;;;;;5.75;100.00;101430.28;5051701;28;20054;-80
2023/02/01 00:51:28;;;;;;;26.88;3.80;;;;;;;5.70;100.00;101438.44;5059154;28;20113;-82
2023/02/01 00:53:55;;;;;;;29.80;4.03;;;;;;;5.67;100.00;101425.50;5065031;28;20520;-82
2023/02/01 00:56:21;;;;;;;32.88;4.90;;;;;;;5.66;100.00;101428.19;5063341;28;20044;-82
2023/02/01 00:58:47;;;;;;;29.17;3.70;;;;;;;5.65;100.00;101424.75;5067024;28;20519;-81
2023/02/01 01:01:22;;;;;;;26.98;5.15;;;;;;;5.72;100.00;101419.97;5074170;28;20063;-82
2023/02/01 01:04:06;;;;;;;26.00;3.77;;;;;;;5.73;100.00;101415.59;5065541;28;20512;-80
2023/02/01 01:06:34;;;;;;;30.10;5.57;;;;;;;5.74;100.00;101420.75;5066738;28;20465;-81
2023/02/01 01:09:03;;;;;;;26.85;3.88;;;;;;;5.75;100.00;101421.59;5074798;28;20119;-82
2023/02/01 01:11:31;;;;;;;23.85;5.07;;;;;;;5.76;100.00;101418.03;5065186;28;20028;-82
2023/02/01 01:13:59;;;;;;;29.40;3.95;;;;;;;5.75;100.00;101417.19;5081804;28;20033;-82
2023/02/01 01:16:27;;;;;;;26.65;5.32;;;;;;;5.71;100.00;101419.16;5065192;28;20025;-80
2023/02/01 01:18:55;;;;;;;19.55;3.13;;;;;;;5.66;100.00;101415.94;5052538;28;20039;-80
2023/02/01 01:21:21;;;;;;;37.72;4.97;;;;;;;5.65;100.00;101410.78;5041518;28;20614;-80
2023/02/01 01:23:47;;;;;;;24.52;4.32;;;;;;;5.63;100.00;101402.16;5084131;28;20032;-82
2023/02/01 01:26:19;;;;;;;20.88;3.08;;;;;;;5.66;100.00;101396.72;5065600;28;20059;-82
2023/02/01 01:28:45;;;;;;;29.75;4.50;;;;;;;5.63;100.00;101394.28;5046661;28;20033;-82
2023/02/01 01:31:14;;;;;;;35.95;4.07;;;;;;;5.62;100.00;101384.72;5046427;28;20048;-81
2023/02/01 01:33:40;;;;;;;24.73;4.28;;;;;;;5.59;100.00;101383.13;5067078;28;20032;-80
2023/02/01 01:36:10;;;;;;;25.95;3.92;;;;;;;5.57;100.00;101385.00;5067117;28;20032;-80
2023/02/01 01:38:39;;;;;;;19.67;2.97;;;;;;;5.54;100.00;101386.00;5080436;28;20041;-79
2023/02/01 01:41:05;;;;;;;23.25;4.32;;;;;;;5.48;100.00;101382.91;5050768;28;20036;-80
2023/02/01 01:43:51;;;;;;;21.85;3.33;;;;;;;5.51;100.00;101387.97;5067055;28;20542;-82
2023/02/01 01:46:24;;;;;;;22.10;4.10;;;;;;;5.46;100.00;101385.63;5060478;28;20037;-82
2023/02/01 01:49:14;;;;;;;28.55;4.95;;;;;;;5.42;100.00;101384.94;5070249;28;20044;-82
2023/02/01 01:51:54;;;;;;;29.50;4.35;;;;;;;5.39;100.00;101385.13;5075263;28;20098;-82
2023/02/01 01:54:22;;;;;;;26.17;3.75;;;;;;;5.39;100.00;101371.16;5072125;28;20051;-82
2023/02/01 01:56:53;;;;;;;25.05;4.03;;;;;;;5.38;100.00;101374.72;5069689;28;20040;-82
2023/02/01 01:59:21;;;;;;;28.85;2.83;;;;;;;5.42;100.00;101368.34;5088530;28;20086;-82
2023/02/01 02:01:47;;;;;;;26.65;4.13;;;;;;;5.44;100.00;101372.59;5054694;28;20107;-82
2023/02/01 02:04:13;;;;;;;22.40;4.32;;;;;;;5.48;100.00;101368.00;5069579;28;20127;-81
2023/02/01 02:06:49;;;;;;;22.58;4.32;;;;;;;5.58;100.00;101356.06;5033770;28;20041;-82
2023/02/01 02:09:16;;;;;;;;;;;;;;;5.59;100.00;101367.38;5054747;28;20020;-82
2023/02/01 02:11:42;;;;;;;26.20;3.38;;;;;;;5.64;100.00;101365.34;5071676;28;20375;-82
2023/02/01 02:14:11;;;;;;;18.92;3.70;;;;;;;5.72;100.00;101362.25;5085468;28;20097;-82
2023/02/01 02:16:53;;;;;;;22.33;3.28;;;;;;;5.78;100.00;101361.91;5074675;28;20071;-82
2023/02/01 02:19:37;;;;;;;26.92;3.10;;;;;;;5.76;100.00;101365.56;5050100;28;20401;-82
2023/02/01 02:22:03;;;;;;;20.50;2.90;;;;;;;5.79;100.00;101360.13;5065717;28;20036;-82
2023/02/01 02:24:52;;;;;;;25.23;3.03;;;;;;;5.87;100.00;101365.78;5069318;28;20032;-82
2023/02/01 02:27:55;;;;;;;17.23;3.05;;;;;;;5.94;100.00;101366.28;5069707;28;20035;-79
2023/02/01 02:30:37;;;;;;;20.95;3.38;;;;;;;5.96;100.00;101367.00;5003843;28;20123;-79
2023/02/01 02:33:35;;;;;;;18.73;3.17;;;;;;;5.98;100.00;101364.28;5071548;28;20044;-82
2023/02/01 02:36:24;;;;;;;18.27;3.33;;;;;;;5.98;100.00;101374.78;5026464;28;20413;-82
2023/02/01 02:38:52;;;;;;;17.67;3.08;;;;;;;5.97;100.00;101363.47;5070359;28;20451;-79
2023/02/01 02:47:33;;;;;;;22.42;4.47;;;;;;;5.89;100.00;101373.56;5084189;28;20499;-82
2023/02/01 03:04:25;;;;;;;27.73;3.35;;;;;;;5.64;100.00;101359.28;5070765;28;19923;-82
2023/02/01 03:06:52;;;;;;;20.67;3.70;;;;;;;5.63;100.00;101358.41;5071041;28;20066;-81
2023/02/01 03:09:36;;;;;;;17.50;3.22;;;;;;;5.65;100.00;101361.81;5086295;28;20028;-82
2023/02/01 03:15:01;;;;;;;21.60;3.88;;;;;;;5.65;100.00;101368.81;5062993;28;20404;-82
2023/02/01 03:17:33;;;;;;;22.90;3.70;;;;;;;5.64;100.00;101359.28;5047622;28;20119;-82
2023/02/01 03:20:02;;;;;;;26.85;5.13;;;;;;;5.63;100.00;101358.41;5065248;28;20393;-82
2023/02/01 03:22:32;;;;;;;29.60;4.97;;;;;;;5.62;100.00;101355.88;5065873;28;20037;-82
2023/02/01 03:25:12;;;;;;;29.70;3.63;;;;;;;5.63;100.00;101358.41;5066643;28;20507;-82
2023/02/01 03:27:48;;;;;;;27.25;3.75;;;;;;;5.58;100.00;101345.56;5084103;28;20122;-82
2023/02/01 03:30:22;;;;;;;25.15;3.67;;;;;;;5.62;100.00;101343.63;5080592;28;20036;-82
2023/02/01 03:33:00;;;;;;;24.05;3.60;;;;;;;5.60;100.00;101332.38;5069682;28;20074;-82
2023/02/01 03:35:38;;;;;;;36.22;4.13;;;;;;;5.61;100.00;101330.56;5070692;28;20047;-81
2023/02/01 03:38:20;;;;;;;25.63;3.80;;;;;;;5.61;100.00;101320.94;5052357;28;20032;-82
2023/02/01 03:40:53;;;;;;;24.38;3.40;;;;;;;5.60;100.00;101319.25;5059570;28;20043;-82
2023/02/01 03:43:22;;;;;;;29.70;3.35;;;;;;;5.58;100.00;101316.72;5058467;28;20493;-82
2023/02/01 03:45:57;;;;;;;26.92;3.65;;;;;;;5.61;100.00;101328.81;5062851;28;20089;-82
2023/02/01 03:48:26;;;;;;;24.20;3.75;;;;;;;5.57;100.00;101333.38;5017578;28;20438;-81
2023/02/01 03:50:55;;;;;;;29.35;3.97;;;;;;;5.58;100.00;101321.97;5057206;28;20957;-82
2023/02/01 03:53:24;;;;;;;27.52;4.22;;;;;;;5.59;100.00;101320.16;5057239;28;20033;-82
2023/02/01 03:55:52;;;;;;;21.25;3.08;;;;;;;5.57;100.00;101319.44;5059216;28;20132;-82
2023/02/01 03:58:21;;;;;;;28.55;3.60;;;;;;;5.54;100.00;101323.06;5062063;28;20029;-79
2023/02/01 04:00:59;;;;;;;29.52;4.00;;;;;;;5.54;100.00;101335.34;5043488;28;20167;-79
2023/02/01 04:03:27;;;;;;;29.88;3.60;;;;;;;5.48;100.00;101325.22;5060615;28;20045;-82
2023/02/01 04:05:54;;;;;;;25.63;4.57;;;;;;;5.44;100.00;101335.88;5061208;28;20122;-82
2023/02/01 04:08:23;;;;;;;24.45;3.92;;;;;;;5.43;100.00;101333.34;4984576;28;20059;-82
2023/02/01 04:10:49;;;;;;;28.30;3.50;;;;;;;5.42;100.00;101335.13;5042447;28;20044;-82
2023/02/01 04:13:15;;;;;;;36.40;4.53;;;;;;;5.38;100.00;101335.38;5058925;28;20032;-82
2023/02/01 04:15:41;;;;;;;26.02;4.20;;;;;;;5.36;100.00;101339.88;5066428;28;20446;-82
2023/02/01 04:18:07;;;;;;;23.30;3.65;;;;;;;5.33;100.00;101343.53;5063762;28;20499;-83
2023/02/01 04:20:33;;;;;;;34.95;4.45;;;;;;;5.33;100.00;101347.00;5061305;28;20052;-82
2023/02/01 04:22:58;;;;;;;23.80;3.80;;;;;;;5.32;100.00;101340.03;5043616;28;20430;-82
2023/02/01 04:25:24;;;;;;;21.27;3.45;;;;;;;5.29;100.00;101339.38;5055976;28;20032;-82
2023/02/01 04:27:51;;;;;;;24.92;3.33;;;;;;;5.27;100.00;101342.06;5059696;28;20043;-82
2023/02/01 04:30:17;;;;;;;18.92;2.75;;;;;;;5.29;100.00;101344.59;5080654;28;20032;-81
2023/02/01 04:32:42;;;;;;;22.35;2.83;;;;;;;5.26;100.00;101337.78;5061894;28;20116;-81
2023/02/01 04:35:09;;;;;;;24.08;3.55;;;;;;;5.27;100.00;101341.25;5060092;28;20108;-82
2023/02/01 04:37:34;;;;;;;22.52;3.20;;;;;;;5.29;100.00;101339.38;5056425;28;20491;-82
2023/02/01 04:40:00;;;;;;;22.80;2.95;;;;;;;5.35;100.00;101346.91;5071883;28;20028;-82
2023/02/01 04:42:29;;;;;;;23.15;2.83;;;;;;;5.38;100.00;101356.38;5059529;28;20119;-82
2023/02/01 04:44:54;;;;;;;29.27;3.28;;;;;;;5.41;100.00;101348.31;5065517;28;20055;-82
2023/02/01 04:47:20;;;;;;;32.35;5.38;;;;;;;5.44;100.00;101345.53;5058642;28;20086;-82
2023/02/01 04:49:46;;;;;;;24.92;3.60;;;;;;;5.51;100.00;101356.50;5059750;28;20040;-81
2023/02/01 04:52:12;;;;;;;22.63;3.28;;;;;;;5.55;100.00;101361.50;5063907;28;20036;-82
2023/02/01 04:54:37;;;;;;;29.38;3.80;;;;;;;5.59;100.00;101356.88;5067012;28;20048;-80
2023/02/01 04:57:03;;;;;;;14.95;3.03;;;;;;;5.63;100.00;101353.16;5061663;28;20036;-81
2023/02/01 04:59:29;;;;;;;25.77;3.22;;;;;;;5.68;100.00;101359.00;5063419;28;20027;-82
2023/02/01 05:01:55;;;;;;;25.48;3.10;;;;;;;5.72;100.00;101362.25;5066480;28;20044;-82
2023/02/01 05:04:20;;;;;;;19.90;2.72;;;;;;;5.77;100.00;101370.72;5060818;28;20068;-82
2023/02/01 05:06:46;;;;;;;25.60;4.63;;;;;;;5.83;100.00;101364.25;5061818;28;20094;-79
2023/02/01 05:09:12;;;;;;;19.40;3.10;;;;;;;5.85;100.00;101354.53;5055971;28;20033;-79
2023/02/01 05:14:22;;;;;;;12.45;2.92;;;;;;;5.91;100.00;101362.03;5060012;28;20025;-82
2023/02/01 05:16:48;;;;;;;27.92;4.15;;;;;;;5.97;100.00;101352.97;5075547;28;20557;-82
2023/02/01 05:19:14;;;;;;;23.58;3.05;;;;;;;6.02;100.00;101352.69;5076869;28;20037;-82
2023/02/01 05:21:39;;;;;;;30.13;3.65;;;;;;;6.04;100.00;101345.53;5086237;28;20036;-82
2023/02/01 05:24:10;;;;;;;27.42;3.03;;;;;;;6.07;100.00;101359.38;5067055;28;20028;-82
2023/02/01 05:26:37;;;;;;;24.17;3.30;;;;;;;6.12;100.00;101351.22;5057630;28;20081;-82
2023/02/01 05:29:03;;;;;;;21.45;3.08;;;;;;;6.13;100.00;101355.53;5070183;28;20763;-82
2023/02/01 05:31:29;;;;;;;20.00;3.05;;;;;;;6.16;100.00;101357.13;5068675;28;20036;-82
2023/02/01 05:33:55;;;;;;;21.80;3.25;;;;;;;6.18;100.00;101352.66;5069622;28;20036;-82
2023/02/01 05:36:21;;;;;;;22.30;3.10;;;;;;;6.19;100.00;101349.06;5063616;28;20043;-81
2023/02/01 05:38:46;;;;;;;19.42;3.35;;;;;;;6.22;100.00;101348.03;5051751;28;20161;-82
2023/02/01 05:41:12;;;;;;;31.27;4.25;;;;;;;6.24;100.00;101341.78;5086100;28;20032;-82
2023/02/01 05:43:38;;;;;;;25.10;3.50;;;;;;;6.23;100.00;101337.44;5064251;28;20047;-82
2023/02/01 05:46:04;;;;;;;23.55;2.35;;;;;;;6.23;100.00;101337.44;5086907;28;20025;-81
2023/02/01 05:48:30;;;;;;;17.95;3.15;;;;;;;6.23;100.00;101328.75;5052894;28;20032;-82
2023/02/01 05:50:56;;;;;;;33.08;4.07;;;;;;;6.22;100.00;101338.38;5065806;28;20123;-81
2023/02/01 05:53:21;;;;;;;19.23;2.60;;;;;;;6.24;100.00;101338.28;5086558;28;20032;-82
2023/02/01 05:55:47;;;;;;;31.48;3.33;;;;;;;6.24;100.00;101333.03;5077544;28;20048;-82
2023/02/01 05:58:13;;;;;;;25.30;4.20;;;;;;;6.23;100.00;101334.81;5069836;28;20047;-82
2023/02/01 06:00:39;;;;;;;19.33;3.25;;;;;;;6.24;100.00;101333.91;5065268;28;20480;-82
2023/02/01 06:03:05;;;;;;;22.88;4.07;;;;;;;6.25;100.00;101330.31;5084442;28;20425;-82
2023/02/01 06:05:32;;;;;;;23.95;3.28;;;;;;;6.29;100.00;101331.81;5063014;28;20035;-82
2023/02/01 06:07:58;;;;;;;16.83;2.80;;;;;;;6.26;100.00;101334.63;5071874;28;20105;-80
2023/02/01 06:10:24;;;;;;;11.75;2.13;;;;;;;6.27;100.00;101338.97;5054221;28;20032;-79
2023/02/01 06:12:50;;;;;;;22.35;3.65;;;;;;;6.28;100.00;101335.38;5080838;28;20495;-82
2023/02/01 06:15:16;;;;;;;25.73;3.00;;;;;;;6.31;100.00;101339.59;5067193;28;20036;-82
2023/02/01 06:17:43;;;;;;;18.17;3.22;;;;;;;6.35;100.00;101322.72;5061080;28;20115;-82
2023/02/01 06:20:11;;;;;;;29.55;5.15;;;;;;;6.36;100.00;101329.66;5049502;28;20037;-83
2023/02/01 06:22:37;;;;;;;15.27;2.15;;;;;;;6.36;100.00;101321.78;5068608;28;20028;-82
2023/02/01 06:25:05;;;;;;;32.38;5.03;;;;;;;6.40;100.00;101325.06;5067278;28;20032;-82
2023/02/01 06:27:31;;;;;;;21.02;3.03;;;;;;;6.41;100.00;101316.25;5067881;28;20048;-82
2023/02/01 06:29:57;;;;;;;20.45;3.08;;;;;;;6.44;100.00;101321.31;5062453;28;20051;-81
2023/02/01 06:32:23;;;;;;;28.58;3.10;;;;;;;6.49;100.00;101321.00;5044723;28;20404;-82
2023/02/01 06:34:49;;;;;;;22.40;3.35;;;;;;;6.52;100.00;101316.41;5074572;28;20392;-82
2023/02/01 06:37:15;;;;;;;19.85;2.97;;;;;;;6.58;100.00;101326.53;5060228;28;20036;-82
2023/02/01 06:39:41;;;;;;;20.50;2.90;;;;;;;6.59;100.00;101319.50;5066606;28;20048;-82
2023/02/01 06:42:06;;;;;;;23.08;3.03;;;;;;;6.61;100.00;101320.25;5068043;28;20074;-82
2023/02/01 06:44:32;;;;;;;29.00;3.58;;;;;;;6.64;100.00;101332.34;5065340;28;20029;-82
2023/02/01 06:46:58;;;;;;;20.83;3.08;;;;;;;6.67;100.00;101322.47;5066461;28;20487;-82
2023/02/01 06:49:24;;;;;;;23.38;3.47;;;;;;;6.70;100.00;101329.34;5065028;28;20728;-82
2023/02/01 06:51:49;;;;;;;23.83;3.28;;;;;;;6.70;100.00;101331.97;5060759;28;20025;-82
2023/02/01 06:54:15;;;;;;;21.17;3.28;;;;;;;6.74;100.00;101338.72;5081418;28;20025;-82
2023/02/01 06:56:41;;;;;;;26.63;3.30;;;;;;;6.72;100.00;101334.50;5067307;28;20059;-82
2023/02/01 06:59:07;;;;;;;24.88;3.15;;;;;;;6.70;100.00;101326.72;5060246;28;20090;-82
2023/02/01 07:01:34;;;;;;;39.03;4.65;;;;;;;6.68;100.00;101336.47;5065817;28;20124;-82
2023/02/01 07:04:00;;;;;;;26.25;4.00;;;;;;;6.66;100.00;101336.56;5065177;28;20526;-82
2023/02/01 07:06:26;;;;;;;22.17;2.80;;;;;;;6.68;100.00;101344.34;5061551;28;20039;-82
2023/02/01 07:08:51;;;;;;;27.13;3.83;;;;;;;6.70;100.00;101338.03;5064960;28;20037;-82
2023/02/01 07:11:18;;;;;;;25.23;5.05;;;;;;;6.73;100.00;101344.06;5063636;28;20055;-82
2023/02/01 07:13:44;;;;;;;24.65;3.85;;;;;;;6.72;100.00;101342.38;5083015;28;20028;-79
2023/02/01 07:16:17;;;;;;;24.40;3.15;;;;;;;6.76;100.00;101346.50;5082403;28;20040;-79
2023/02/01 07:18:43;;;;;;;25.98;4.43;;;;;;;6.73;100.00;101344.06;5069345;28;20040;-82
2023/02/01 07:21:09;;;;;;;28.27;4.05;;;;;;;6.73;100.00;101346.69;5064802;28;20029;-81
2023/02/01 07:23:35;;;;;;;27.45;3.58;;;;;;;6.75;100.00;101353.56;5080056;28;20616;-82
2023/02/01 07:26:04;;;;;;;35.30;4.25;;;;;;;6.78;100.00;101347.25;5063724;28;20036;-81
2023/02/01 07:28:32;;;;;;;23.65;3.63;;;;;;;6.80;100.00;101348.00;5080281;28;20039;-82
2023/02/01 07:31:05;;;;;;;28.55;3.83;;;;;;;6.85;100.00;101350.34;5066669;28;20116;-82
2023/02/01 07:33:31;;;;;;;25.30;4.47;;;;;;;6.82;100.00;101348.72;5059533;28;20025;-79
2023/02/01 07:35:57;;;;;;;26.58;3.90;;;;;;;6.80;100.00;101351.44;5065364;28;20074;-79
2023/02/01 07:38:23;;;;;;;23.73;4.28;;;;;;;6.81;100.00;101347.06;5065668;28;20051;-82
2023/02/01 07:40:49;;;;;;;35.05;3.80;;;;;;;6.85;100.00;101358.22;5081364;28;20045;-82
2023/02/01 07:43:15;;;;;;;37.97;5.10;;;;;;;6.86;100.00;101352.88;5045018;28;20037;-79
2023/02/01 07:45:41;;;;;;;26.15;4.20;;;;;;;6.89;100.00;101349.19;5063100;28;20036;-79
2023/02/01 07:48:07;;;;;;;23.75;3.70;;;;;;;6.90;100.00;101340.34;5028691;28;20033;-82
2023/02/01 07:50:34;;;;;;;24.02;3.40;;;;;;;6.95;100.00;101347.03;5071181;28;20508;-83
2023/02/01 07:53:00;;;;;;;28.45;4.00;;;;;;;6.97;100.00;101344.28;5077760;28;20040;-82
2023/02/01 07:55:26;;;;;;;26.33;4.38;;;;;;;7.00;100.00;101354.63;5077486;28;20044;-82
2023/02/01 07:57:52;;;;;;;30.08;3.55;;;;;;;7.00;100.00;101348.50;5064813;28;20036;-82
2023/02/01 08:03:04;;;;;;;26.60;3.72;;;;;;;7.02;100.00;101344.00;5074301;28;20044;-82
2023/02/01 08:05:29;;;;;;;30.63;4.07;;;;;;;7.02;100.00;101349.25;5079696;28;20113;-82
2023/02/01 08:07:55;;;;;;;34.65;4.72;;;;;;;7.03;100.00;101351.78;5065855;28;20037;-82
2023/02/01 08:10:21;;;;;;;25.50;3.53;;;;;;;7.03;100.00;101343.91;5067341;28;20036;-82
2023/02/01 08:12:48;;;;;;;19.35;3.53;;;;;;;7.05;100.00;101349.91;5079744;28;20025;-82
2023/02/01 08:15:18;;;;;;;26.67;4.05;;;;;;;7.12;100.00;101349.50;5059936;28;20029;-82
2023/02/01 08:17:48;;;;;;;19.30;2.95;;;;;;;7.12;100.00;101342.44;5054621;28;20094;-80
2023/02/01 08:20:14;;;;;;;24.50;4.05;;;;;;;7.13;100.00;101351.19;5075301;28;20020;-80
2023/02/01 08:22:40;;;;;;;23.33;4.25;;;;;;;7.14;100.00;101351.09;5077584;28;20845;-82
2023/02/01 08:25:06;;;;;;;26.17;3.58;;;;;;;7.13;100.00;101364.34;5060466;28;20028;-82
2023/02/01 08:27:33;;;;;;;27.90;3.70;;;;;;;7.13;100.00;101348.56;5082318;28;20025;-82
2023/02/01 08:29:59;;;;;;;21.13;3.78;;;;;;;7.11;100.00;101338.16;5066705;28;20024;-82
2023/02/01 08:32:26;;;;;;;24.15;4.18;;;;;;;7.12;100.00;101365.28;5083857;28;20572;-82
2023/02/01 08:34:53;;;;;;;27.42;3.70;;;;;;;7.13;100.00;101362.56;5067508;28;20040;-82
2023/02/01 08:37:19;;;;;;;19.80;3.63;;;;;;;7.13;100.00;101366.97;5079330;28;20396;-81
2023/02/01 08:39:44;;;;;;;35.05;5.90;;;;;;;7.12;100.00;101374.00;5047947;28;20032;-82
2023/02/01 08:44:56;;;;;;;20.27;4.07;;;;;;;7.13;100.00;101380.09;5072748;28;20044;-82
2023/02/01 08:47:22;;;;;;;23.00;3.83;;;;;;;7.15;100.00;101372.97;5058709;28;20025;-81
2023/02/01 08:49:47;;;;;;;25.63;4.05;;;;;;;7.16;100.00;101379.91;5070327;28;20123;-82
2023/02/01 08:52:14;;;;;;;37.72;4.88;;;;;;;7.18;100.00;101383.28;5060219;28;20024;-82
2023/02/01 08:54:40;;;;;;;32.17;5.18;;;;;;;7.20;100.00;101381.38;5071895;28;20105;-82
2023/02/01 08:57:06;;;;;;;21.33;3.70;;;;;;;7.23;100.00;101377.75;5052269;28;20849;-82
2023/02/01 08:59:32;;;;;;;33.30;4.28;;;;;;;7.25;100.00;101373.19;5065234;28;20029;-82
2023/02/01 09:01:58;;;;;;;27.65;3.45;;;;;;;7.28;100.00;101373.00;5066692;28;20037;-82
2023/02/01 09:04:24;;;;;;;30.40;4.10;;;;;;;7.31;100.00;101380.72;5018149;28;20036;-82
2023/02/01 09:06:49;;;;;;;28.20;3.28;;;;;;;7.32;100.00;101380.63;5076435;28;20078;-82
2023/02/01 09:09:15;;;;;;;26.35;4.03;;;;;;;7.37;100.00;101374.22;5054860;28;20464;-82
2023/02/01 09:11:41;;;;;;;21.50;3.80;;;;;;;7.36;100.00;101375.97;5049698;28;20060;-82
2023/02/01 09:14:06;;;;;;;34.15;4.43;;;;;;;7.39;100.00;101388.13;5061408;28;20476;-81
2023/02/01 09:16:32;;;;;;;25.95;3.55;;;;;;;7.40;100.00;101401.16;5056305;28;20036;-81
2023/02/01 09:18:58;;;;;;;29.10;3.95;;;;;;;7.43;100.00;101400.09;5038466;28;20052;-82
2023/02/01 09:21:24;;;;;;;27.85;3.35;;;;;;;7.46;100.00;101399.91;5061801;28;20078;-82
2023/02/01 09:23:53;;;;;;;26.23;3.65;;;;;;;7.50;100.00;101400.56;5053676;28;20083;-80
2023/02/01 09:26:19;;;;;;;25.90;4.78;;;;;;;7.48;100.00;101392.78;5053725;28;20040;-80
2023/02/01 09:28:44;;;;;;;23.60;3.85;;;;;;;7.52;100.00;101398.66;5066392;28;20037;-82
2023/02/01 09:31:11;;;;;;;34.83;4.32;;;;;;;7.55;100.00;101399.31;5046475;28;20485;-82
2023/02/01 09:33:39;;;;;;;24.35;3.20;;;;;;;7.55;100.00;101398.44;5038461;28;20037;-82
2023/02/01 09:36:05;;;;;;;26.35;4.20;;;;;;;7.57;100.00;101392.16;5043893;28;20094;-82
2023/02/01 09:38:32;;;;;;;30.08;4.93;;;;;;;7.62;100.00;101393.63;5056496;28;20523;-82
2023/02/01 09:41:01;;;;;;;23.77;4.25;;;;;;;7.64;100.00;101386.50;5079471;28;20106;-81
2023/02/01 09:43:48;;;;;;;24.38;4.15;;;;;;;7.69;100.00;101392.31;5063290;28;20390;-82
2023/02/01 09:46:29;;;;;;;36.67;5.00;;;;;;;7.72;100.00;101392.09;5072408;28;20035;-82
2023/02/01 09:48:58;;;;;;;34.58;5.50;;;;;;;7.73;100.00;101403.44;5038361;28;20342;-81
2023/02/01 09:51:36;;;;;;;34.53;4.18;;;;;;;7.75;100.00;101398.94;5025080;28;20036;-82
2023/02/01 09:54:18;;;;;;;16.30;3.13;;;;;;;7.76;100.00;101395.34;5059363;28;21076;-82
2023/02/01 09:56:53;;;;;;;28.45;3.72;;;;;;;7.79;100.00;101400.41;5067514;28;20492;-82
2023/02/01 09:59:31;;;;;;;26.00;3.42;;;;;;;7.80;100.00;101402.94;5061263;28;20103;-82
2023/02/01 10:01:59;;;;;;;30.65;5.60;;;;;;;7.77;100.00;101403.13;5059947;28;20041;-80
2023/02/01 10:04:25;;;;;;;20.83;3.50;;;;;;;7.79;100.00;101401.25;5080961;28;20028;-82
2023/02/01 10:06:54;;;;;;;34.65;4.80;;;;;;;7.78;100.00;101415.38;5057616;28;20041;-82
2023/02/01 10:09:32;;;;;;;23.17;4.05;;;;;;;7.81;100.00;101412.53;5065142;28;20040;-82
2023/02/01 10:12:27;;;;;;;26.65;3.70;;;;;;;7.82;100.00;101418.63;5088499;28;20044;-82
2023/02/01 10:15:12;;;;;;;30.80;4.57;;;;;;;7.78;100.00;101418.00;5069379;28;20045;-82
2023/02/01 10:17:41;;;;;;;31.70;4.55;;;;;;;7.73;100.00;101430.63;5085432;28;20036;-82
2023/02/01 10:20:29;;;;;;;22.08;3.80;;;;;;;7.77;100.00;101436.53;5054938;28;20037;-82
2023/02/01 10:23:37;;;;;;;28.27;4.25;;;;;;;7.74;100.00;101437.56;5070880;28;20063;-82
2023/02/01 10:26:06;;;;;;;27.42;4.72;;;;;;;7.75;100.00;101439.25;5065435;28;20037;-82
2023/02/01 10:28:36;;;;;;;27.67;5.18;;;;;;;7.73;100.00;101432.38;5066755;28;20028;-82
2023/02/01 10:31:03;;;;;;;30.05;4.32;;;;;;;7.72;100.00;101439.47;5062807;28;20032;-82
2023/02/01 10:33:56;;;;;;;23.92;3.97;;;;;;;7.74;100.00;101449.88;5072145;28;20028;-82
2023/02/01 10:36:32;;;;;;;36.30;5.07;;;;;;;7.68;100.00;101448.47;5079902;28;20047;-83
2023/02/01 10:38:59;;;;;;;22.95;5.40;;;;;;;7.65;100.00;101456.59;5053498;28;20123;-82
2023/02/01 10:41:37;;;;;;;22.73;4.57;;;;;;;7.64;100.00;101455.75;5069226;28;20048;-82
2023/02/01 10:44:07;;;;;;;26.70;3.60;;;;;;;7.63;100.00;101461.13;5086127;28;20078;-82
2023/02/01 10:46:33;;;;;;;36.75;4.05;;;;;;;7.62;100.00;101457.63;5067048;28;20105;-82
2023/02/01 10:49:03;;;;;;;29.92;3.83;;;;;;;7.65;100.00;101454.81;5083929;28;20037;-82
2023/02/01 10:51:38;;;;;;;25.15;3.50;;;;;;;7.65;100.00;101453.94;5062612;28;20049;-82
2023/02/01 10:54:20;;;;;;;21.77;4.43;;;;;;;7.68;100.00;101465.13;5082444;28;20044;-82
2023/02/01 10:56:47;;;;;;;36.00;4.93;;;;;;;7.66;100.00;101458.28;5063921;28;20115;-82
2023/02/01 10:59:24;;;;;;;19.95;4.05;;;;;;;7.73;100.00;101458.72;5063326;28;20032;-80
2023/02/01 11:01:57;;;;;;;19.30;3.47;;;;;;;7.74;100.00;101463.88;5062520;28;20049;-80
2023/02/01 11:04:26;;;;;;;23.67;3.30;;;;;;;7.80;100.00;101452.13;5081990;28;20028;-80
2023/02/01 11:07:18;;;;;;;22.40;3.75;;;;;;;7.86;100.00;101453.50;5064760;28;20024;-80
2023/02/01 11:09:50;;;;;;;29.85;4.00;;;;;;;7.93;100.00;101447.72;5048695;28;20409;-80
2023/02/01 11:12:34;;;;;;;17.77;2.88;;;;;;;8.02;100.00;101464.69;5068992;28;20074;-82
2023/02/01 11:15:21;;;;;;;28.48;3.05;;;;;;;8.11;100.00;101460.59;5063663;28;20020;-83
2023/02/01 11:17:51;;;;;;;17.73;2.75;;;;;;;8.16;100.00;101462.91;5053747;28;20530;-82
2023/02/01 11:20:40;;;;;;;19.77;3.00;;;;;;;8.24;100.00;101463.25;5079845;28;20124;-82
2023/02/01 11:23:18;;;;;;;25.08;3.33;;;;;;;8.34;100.00;101467.91;5074050;28;20044;-83
2023/02/01 11:26:14;;;;;;;23.13;2.78;;;;;;;8.39;100.00;101471.88;5066433;28;20086;-83
2023/02/01 11:28:49;;;;;;;18.23;3.08;;;;;;;8.46;100.00;101463.59;5086646;28;20094;-83
2023/02/01 11:31:16;;;;;;;21.88;4.03;;;;;;;8.48;100.00;101465.16;5054781;28;20067;-83
2023/02/01 11:33:54;;;;;;;23.42;3.00;;;;;;;8.53;100.00;101462.22;5065407;28;20091;-83
2023/02/01 11:36:26;;;;;;;15.07;2.85;;;;;;;8.56;100.00;101469.94;5064250;28;20132;-83
2023/02/01 11:39:06;;;;;;;16.48;3.22;;;;;;;8.60;100.00;101465.31;5073412;28;20036;-83
2023/02/01 11:41:32;;;;;;;22.33;2.83;;;;;;;8.61;100.00;101467.84;5029587;28;20396;-83
2023/02/01 11:44:00;;;;;;;23.30;4.07;;;;;;;8.68;100.00;101460.31;5066439;28;20039;-83
2023/02/01 11:46:34;;;;;;;26.25;6.35;;;;;;;8.73;100.00;101449.50;5067549;28;20036;-82
2023/02/01 11:49:20;;;;;;;23.92;3.95;;;;;;;8.77;100.00;101451.81;5082715;28;20040;-83
2023/02/01 11:52:05;;;;;;;20.85;3.45;;;;;;;8.82;100.00;101454.13;5078453;28;20059;-83
2023/02/01 11:54:58;;;;;;;16.73;2.95;;;;;;;8.87;100.00;101446.69;5066318;28;20040;-80
2023/02/01 11:57:33;;;;;;;22.25;3.13;;;;;;;8.97;100.00;101438.13;5056594;28;20028;-83
2023/02/01 12:00:24;;;;;;;19.93;3.67;;;;;;;9.09;100.00;101426.75;5074914;28;20032;-82